sensor_id;sensor_type;location;lat;lon;timestamp;P1;durP1;ratioP1;P2;durP2;ratioP2
11303;SDS011;5707;49.588;12.148;2022-11-11T00:00:33;2.35;;;2.22;;
11303;SDS011;5707;49.588;12.148;2022-11-11T00:03:00;3.05;;;2.28;;
11303;SDS011;5707;49.588;12.148;2022-11-11T00:05:26;2.42;;;2.22;;
11303;SDS011;5707;49.588;12.148;2022-11-11T00:07:52;3.13;;;2.83;;
11303;SDS011;5707;49.588;12.148;2022-11-11T00:10:23;3.03;;;2.83;;
11303;SDS011;5707;49.588;12.148;2022-11-11T00:12:50;2.30;;;2.20;;
11303;SDS011;5707;49.588;12.148;2022-11-11T00:15:15;3.13;;;2.42;;
11303;SDS011;5707;49.588;12.148;2022-11-11T00:17:41;3.03;;;2.70;;
11303;SDS011;5707;49.588;12.148;2022-11-11T00:20:25;3.10;;;2.90;;
11303;SDS011;5707;49.588;12.148;2022-11-11T00:23:14;2.70;;;2.50;;
11303;SDS011;5707;49.588;12.148;2022-11-11T00:26:07;4.38;;;2.40;;
11303;SDS011;5707;49.588;12.148;2022-11-11T00:28:34;3.10;;;2.90;;
11303;SDS011;5707;49.588;12.148;2022-11-11T00:31:03;2.90;;;2.60;;
11303;SDS011;5707;49.588;12.148;2022-11-11T00:33:30;7.53;;;6.07;;
11303;SDS011;5707;49.588;12.148;2022-11-11T00:35:56;4.88;;;4.38;;
11303;SDS011;5707;49.588;12.148;2022-11-11T00:38:22;4.25;;;3.85;;
11303;SDS011;5707;49.588;12.148;2022-11-11T00:41:06;4.00;;;3.70;;
11303;SDS011;5707;49.588;12.148;2022-11-11T00:43:32;3.30;;;3.10;;
11303;SDS011;5707;49.588;12.148;2022-11-11T00:45:58;2.70;;;2.50;;
11303;SDS011;5707;49.588;12.148;2022-11-11T00:48:42;3.65;;;2.63;;
11303;SDS011;5707;49.588;12.148;2022-11-11T00:51:26;4.35;;;3.30;;
11303;SDS011;5707;49.588;12.148;2022-11-11T00:53:52;4.55;;;2.80;;
11303;SDS011;5707;49.588;12.148;2022-11-11T00:56:18;6.18;;;3.65;;
11303;SDS011;5707;49.588;12.148;2022-11-11T00:58:45;3.63;;;3.33;;
11303;SDS011;5707;49.588;12.148;2022-11-11T01:01:10;3.50;;;3.10;;
11303;SDS011;5707;49.588;12.148;2022-11-11T01:03:36;4.90;;;3.45;;
11303;SDS011;5707;49.588;12.148;2022-11-11T01:06:02;2.60;;;2.13;;
11303;SDS011;5707;49.588;12.148;2022-11-11T01:08:29;3.45;;;2.20;;
11303;SDS011;5707;49.588;12.148;2022-11-11T01:10:56;2.50;;;2.30;;
11303;SDS011;5707;49.588;12.148;2022-11-11T01:13:23;8.05;;;2.47;;
11303;SDS011;5707;49.588;12.148;2022-11-11T01:15:51;6.55;;;2.17;;
11303;SDS011;5707;49.588;12.148;2022-11-11T01:18:22;3.40;;;3.10;;
11303;SDS011;5707;49.588;12.148;2022-11-11T01:21:09;4.07;;;2.28;;
11303;SDS011;5707;49.588;12.148;2022-11-11T01:23:37;7.80;;;3.03;;
11303;SDS011;5707;49.588;12.148;2022-11-11T01:26:12;4.55;;;3.35;;
11303;SDS011;5707;49.588;12.148;2022-11-11T01:28:38;6.18;;;2.95;;
11303;SDS011;5707;49.588;12.148;2022-11-11T01:31:05;7.32;;;3.08;;
11303;SDS011;5707;49.588;12.148;2022-11-11T01:33:36;7.70;;;3.60;;
11303;SDS011;5707;49.588;12.148;2022-11-11T01:36:02;7.63;;;3.97;;
11303;SDS011;5707;49.588;12.148;2022-11-11T01:38:29;13.13;;;3.58;;
11303;SDS011;5707;49.588;12.148;2022-11-11T01:40:55;9.57;;;4.20;;
11303;SDS011;5707;49.588;12.148;2022-11-11T01:43:22;14.43;;;4.55;;
11303;SDS011;5707;49.588;12.148;2022-11-11T01:45:58;9.57;;;4.45;;
11303;SDS011;5707;49.588;12.148;2022-11-11T01:48:32;15.75;;;4.68;;
11303;SDS011;5707;49.588;12.148;2022-11-11T01:51:33;15.57;;;4.40;;
11303;SDS011;5707;49.588;12.148;2022-11-11T01:54:04;35.53;;;5.40;;
11303;SDS011;5707;49.588;12.148;2022-11-11T01:56:34;31.42;;;5.50;;
11303;SDS011;5707;49.588;12.148;2022-11-11T01:59:02;29.15;;;5.07;;
11303;SDS011;5707;49.588;12.148;2022-11-11T02:01:33;38.03;;;6.15;;
11303;SDS011;5707;49.588;12.148;2022-11-11T02:04:00;53.75;;;7.03;;
11303;SDS011;5707;49.588;12.148;2022-11-11T02:06:47;36.50;;;6.05;;
11303;SDS011;5707;49.588;12.148;2022-11-11T02:09:15;101.10;;;8.40;;
11303;SDS011;5707;49.588;12.148;2022-11-11T02:11:41;67.70;;;6.95;;
11303;SDS011;5707;49.588;12.148;2022-11-11T02:14:26;74.60;;;7.15;;
11303;SDS011;5707;49.588;12.148;2022-11-11T02:17:01;29.73;;;6.22;;
11303;SDS011;5707;49.588;12.148;2022-11-11T02:19:51;26.17;;;5.70;;
11303;SDS011;5707;49.588;12.148;2022-11-11T02:23:02;33.67;;;5.18;;
11303;SDS011;5707;49.588;12.148;2022-11-11T02:25:13;31.60;;;4.90;;
11303;SDS011;5707;49.588;12.148;2022-11-11T02:27:44;40.15;;;5.72;;
11303;SDS011;5707;49.588;12.148;2022-11-11T02:30:15;44.70;;;5.70;;
11303;SDS011;5707;49.588;12.148;2022-11-11T02:32:44;39.75;;;4.88;;
11303;SDS011;5707;49.588;12.148;2022-11-11T02:37:42;57.95;;;6.53;;
11303;SDS011;5707;49.588;12.148;2022-11-11T02:40:15;50.72;;;5.20;;
11303;SDS011;5707;49.588;12.148;2022-11-11T02:42:47;44.63;;;5.05;;
11303;SDS011;5707;49.588;12.148;2022-11-11T02:45:13;46.83;;;5.80;;
11303;SDS011;5707;49.588;12.148;2022-11-11T02:47:38;37.30;;;4.85;;
11303;SDS011;5707;49.588;12.148;2022-11-11T02:50:04;23.92;;;4.20;;
11303;SDS011;5707;49.588;12.148;2022-11-11T02:52:30;36.00;;;4.90;;
11303;SDS011;5707;49.588;12.148;2022-11-11T02:54:57;31.50;;;4.70;;
11303;SDS011;5707;49.588;12.148;2022-11-11T02:57:22;28.23;;;4.93;;
11303;SDS011;5707;49.588;12.148;2022-11-11T02:59:49;28.30;;;4.00;;
11303;SDS011;5707;49.588;12.148;2022-11-11T03:02:15;24.13;;;4.50;;
11303;SDS011;5707;49.588;12.148;2022-11-11T03:04:40;39.13;;;4.47;;
11303;SDS011;5707;49.588;12.148;2022-11-11T03:07:06;41.60;;;5.05;;
11303;SDS011;5707;49.588;12.148;2022-11-11T03:09:32;39.65;;;4.53;;
11303;SDS011;5707;49.588;12.148;2022-11-11T03:11:58;35.65;;;4.40;;
11303;SDS011;5707;49.588;12.148;2022-11-11T03:14:23;41.40;;;4.15;;
11303;SDS011;5707;49.588;12.148;2022-11-11T03:16:49;37.00;;;3.88;;
11303;SDS011;5707;49.588;12.148;2022-11-11T03:19:34;24.17;;;3.88;;
11303;SDS011;5707;49.588;12.148;2022-11-11T03:22:00;35.75;;;4.10;;
11303;SDS011;5707;49.588;12.148;2022-11-11T03:24:27;19.13;;;3.60;;
11303;SDS011;5707;49.588;12.148;2022-11-11T03:27:14;28.30;;;3.50;;
11303;SDS011;5707;49.588;12.148;2022-11-11T03:29:40;42.40;;;4.65;;
11303;SDS011;5707;49.588;12.148;2022-11-11T03:32:07;28.58;;;3.50;;
11303;SDS011;5707;49.588;12.148;2022-11-11T03:34:33;57.00;;;4.88;;
11303;SDS011;5707;49.588;12.148;2022-11-11T03:36:59;44.13;;;4.70;;
11303;SDS011;5707;49.588;12.148;2022-11-11T03:39:43;70.97;;;6.57;;
11303;SDS011;5707;49.588;12.148;2022-11-11T03:42:08;38.83;;;4.13;;
11303;SDS011;5707;49.588;12.148;2022-11-11T03:44:34;47.47;;;4.70;;
11303;SDS011;5707;49.588;12.148;2022-11-11T03:46:59;30.58;;;3.70;;
11303;SDS011;5707;49.588;12.148;2022-11-11T03:49:25;22.75;;;3.40;;
11303;SDS011;5707;49.588;12.148;2022-11-11T03:51:51;23.88;;;3.65;;
11303;SDS011;5707;49.588;12.148;2022-11-11T03:54:16;34.72;;;3.90;;
11303;SDS011;5707;49.588;12.148;2022-11-11T03:56:42;41.45;;;4.65;;
11303;SDS011;5707;49.588;12.148;2022-11-11T03:59:08;23.80;;;3.55;;
11303;SDS011;5707;49.588;12.148;2022-11-11T04:01:33;18.25;;;3.78;;
11303;SDS011;5707;49.588;12.148;2022-11-11T04:04:18;28.23;;;3.33;;
11303;SDS011;5707;49.588;12.148;2022-11-11T04:07:02;42.47;;;4.35;;
11303;SDS011;5707;49.588;12.148;2022-11-11T04:09:46;49.80;;;5.20;;
11303;SDS011;5707;49.588;12.148;2022-11-11T04:12:30;18.23;;;3.63;;
11303;SDS011;5707;49.588;12.148;2022-11-11T04:15:19;37.03;;;4.13;;
11303;SDS011;5707;49.588;12.148;2022-11-11T04:18:03;34.13;;;4.13;;
11303;SDS011;5707;49.588;12.148;2022-11-11T04:20:29;22.50;;;3.90;;
11303;SDS011;5707;49.588;12.148;2022-11-11T04:23:13;31.35;;;3.97;;
11303;SDS011;5707;49.588;12.148;2022-11-11T04:25:39;37.72;;;4.53;;
11303;SDS011;5707;49.588;12.148;2022-11-11T04:28:13;19.65;;;3.70;;
11303;SDS011;5707;49.588;12.148;2022-11-11T04:30:58;23.83;;;3.65;;
11303;SDS011;5707;49.588;12.148;2022-11-11T04:33:24;28.98;;;4.30;;
11303;SDS011;5707;49.588;12.148;2022-11-11T04:35:49;44.95;;;4.85;;
11303;SDS011;5707;49.588;12.148;2022-11-11T04:38:15;45.72;;;4.75;;
11303;SDS011;5707;49.588;12.148;2022-11-11T04:40:59;33.55;;;4.78;;
11303;SDS011;5707;49.588;12.148;2022-11-11T04:43:28;19.00;;;3.58;;
11303;SDS011;5707;49.588;12.148;2022-11-11T04:45:58;23.90;;;3.60;;
11303;SDS011;5707;49.588;12.148;2022-11-11T04:48:27;33.60;;;3.97;;
11303;SDS011;5707;49.588;12.148;2022-11-11T04:50:53;21.25;;;4.18;;
11303;SDS011;5707;49.588;12.148;2022-11-11T04:53:18;30.30;;;4.22;;
11303;SDS011;5707;49.588;12.148;2022-11-11T04:55:44;19.60;;;4.00;;
11303;SDS011;5707;49.588;12.148;2022-11-11T04:58:30;23.38;;;3.72;;
11303;SDS011;5707;49.588;12.148;2022-11-11T05:00:57;30.73;;;4.18;;
11303;SDS011;5707;49.588;12.148;2022-11-11T05:03:23;25.98;;;3.85;;
11303;SDS011;5707;49.588;12.148;2022-11-11T05:05:56;50.40;;;5.05;;
11303;SDS011;5707;49.588;12.148;2022-11-11T05:08:43;25.08;;;3.95;;
11303;SDS011;5707;49.588;12.148;2022-11-11T05:11:32;29.95;;;4.70;;
11303;SDS011;5707;49.588;12.148;2022-11-11T05:14:00;35.72;;;4.85;;
11303;SDS011;5707;49.588;12.148;2022-11-11T05:16:49;37.85;;;5.05;;
11303;SDS011;5707;49.588;12.148;2022-11-11T05:19:35;22.75;;;3.70;;
11303;SDS011;5707;49.588;12.148;2022-11-11T05:24:51;37.38;;;4.72;;
11303;SDS011;5707;49.588;12.148;2022-11-11T05:27:35;52.42;;;6.00;;
11303;SDS011;5707;49.588;12.148;2022-11-11T05:30:02;44.67;;;5.25;;
11303;SDS011;5707;49.588;12.148;2022-11-11T05:32:28;40.75;;;4.93;;
11303;SDS011;5707;49.588;12.148;2022-11-11T05:34:54;47.40;;;5.43;;
11303;SDS011;5707;49.588;12.148;2022-11-11T05:37:20;73.53;;;7.07;;
11303;SDS011;5707;49.588;12.148;2022-11-11T05:39:46;51.83;;;6.10;;
11303;SDS011;5707;49.588;12.148;2022-11-11T05:42:12;74.18;;;6.05;;
11303;SDS011;5707;49.588;12.148;2022-11-11T05:44:37;78.03;;;7.03;;
11303;SDS011;5707;49.588;12.148;2022-11-11T05:47:03;64.03;;;7.03;;
11303;SDS011;5707;49.588;12.148;2022-11-11T05:49:29;59.70;;;5.78;;
11303;SDS011;5707;49.588;12.148;2022-11-11T05:51:55;74.18;;;6.68;;
11303;SDS011;5707;49.588;12.148;2022-11-11T05:54:21;60.75;;;6.35;;
11303;SDS011;5707;49.588;12.148;2022-11-11T05:56:46;132.00;;;12.23;;
11303;SDS011;5707;49.588;12.148;2022-11-11T05:59:12;101.82;;;9.55;;
11303;SDS011;5707;49.588;12.148;2022-11-11T06:01:38;95.53;;;7.80;;
11303;SDS011;5707;49.588;12.148;2022-11-11T06:04:04;32.35;;;4.05;;
11303;SDS011;5707;49.588;12.148;2022-11-11T06:06:30;42.17;;;5.32;;
11303;SDS011;5707;49.588;12.148;2022-11-11T06:08:57;48.22;;;5.50;;
11303;SDS011;5707;49.588;12.148;2022-11-11T06:11:23;28.27;;;4.97;;
11303;SDS011;5707;49.588;12.148;2022-11-11T06:13:48;19.30;;;4.05;;
11303;SDS011;5707;49.588;12.148;2022-11-11T06:16:14;8.40;;;3.78;;
11303;SDS011;5707;49.588;12.148;2022-11-11T06:18:40;5.68;;;3.75;;
11303;SDS011;5707;49.588;12.148;2022-11-11T06:21:06;7.97;;;4.03;;
11303;SDS011;5707;49.588;12.148;2022-11-11T06:23:32;6.68;;;3.97;;
11303;SDS011;5707;49.588;12.148;2022-11-11T06:25:57;6.60;;;3.78;;
11303;SDS011;5707;49.588;12.148;2022-11-11T06:31:04;4.13;;;3.83;;
11303;SDS011;5707;49.588;12.148;2022-11-11T06:33:31;3.55;;;3.03;;
11303;SDS011;5707;49.588;12.148;2022-11-11T06:35:58;6.88;;;3.17;;
11303;SDS011;5707;49.588;12.148;2022-11-11T06:38:24;3.67;;;3.38;;
11303;SDS011;5707;49.588;12.148;2022-11-11T06:40:50;4.70;;;2.72;;
11303;SDS011;5707;49.588;12.148;2022-11-11T06:43:15;5.97;;;3.03;;
11303;SDS011;5707;49.588;12.148;2022-11-11T06:45:41;6.75;;;3.15;;
11303;SDS011;5707;49.588;12.148;2022-11-11T06:48:07;5.20;;;4.35;;
11303;SDS011;5707;49.588;12.148;2022-11-11T06:50:33;7.88;;;6.40;;
11303;SDS011;5707;49.588;12.148;2022-11-11T06:53:14;5.93;;;5.43;;
11303;SDS011;5707;49.588;12.148;2022-11-11T06:55:41;4.20;;;3.90;;
11303;SDS011;5707;49.588;12.148;2022-11-11T06:58:09;4.03;;;3.67;;
11303;SDS011;5707;49.588;12.148;2022-11-11T07:00:40;3.33;;;3.13;;
11303;SDS011;5707;49.588;12.148;2022-11-11T07:03:08;8.27;;;5.15;;
11303;SDS011;5707;49.588;12.148;2022-11-11T07:05:35;92.75;;;9.38;;
11303;SDS011;5707;49.588;12.148;2022-11-11T07:08:01;86.30;;;9.18;;
11303;SDS011;5707;49.588;12.148;2022-11-11T07:10:29;66.30;;;7.38;;
11303;SDS011;5707;49.588;12.148;2022-11-11T07:12:55;79.82;;;6.32;;
11303;SDS011;5707;49.588;12.148;2022-11-11T07:15:21;90.65;;;6.70;;
11303;SDS011;5707;49.588;12.148;2022-11-11T07:17:47;72.88;;;6.32;;
11303;SDS011;5707;49.588;12.148;2022-11-11T07:20:12;71.70;;;6.90;;
11303;SDS011;5707;49.588;12.148;2022-11-11T07:22:38;82.20;;;7.47;;
11303;SDS011;5707;49.588;12.148;2022-11-11T07:25:04;46.22;;;5.30;;
11303;SDS011;5707;49.588;12.148;2022-11-11T07:27:30;45.78;;;6.50;;
11303;SDS011;5707;49.588;12.148;2022-11-11T07:29:56;39.03;;;5.28;;
11303;SDS011;5707;49.588;12.148;2022-11-11T07:32:21;7.93;;;3.70;;
11303;SDS011;5707;49.588;12.148;2022-11-11T07:34:47;14.02;;;4.13;;
11303;SDS011;5707;49.588;12.148;2022-11-11T07:37:14;3.53;;;3.33;;
11303;SDS011;5707;49.588;12.148;2022-11-11T07:39:40;3.78;;;3.42;;
11303;SDS011;5707;49.588;12.148;2022-11-11T07:42:06;4.50;;;3.15;;
11303;SDS011;5707;49.588;12.148;2022-11-11T07:44:31;4.53;;;3.40;;
11303;SDS011;5707;49.588;12.148;2022-11-11T07:46:57;3.47;;;3.00;;
11303;SDS011;5707;49.588;12.148;2022-11-11T07:49:23;3.72;;;3.10;;
11303;SDS011;5707;49.588;12.148;2022-11-11T07:51:48;3.65;;;3.35;;
11303;SDS011;5707;49.588;12.148;2022-11-11T07:54:14;3.83;;;3.08;;
11303;SDS011;5707;49.588;12.148;2022-11-11T07:56:39;3.28;;;3.08;;
11303;SDS011;5707;49.588;12.148;2022-11-11T07:59:05;2.83;;;2.58;;
11303;SDS011;5707;49.588;12.148;2022-11-11T08:01:31;3.10;;;2.45;;
11303;SDS011;5707;49.588;12.148;2022-11-11T08:03:56;2.90;;;2.70;;
11303;SDS011;5707;49.588;12.148;2022-11-11T08:06:22;3.75;;;3.00;;
11303;SDS011;5707;49.588;12.148;2022-11-11T08:08:48;3.60;;;3.40;;
11303;SDS011;5707;49.588;12.148;2022-11-11T08:11:14;4.43;;;3.63;;
11303;SDS011;5707;49.588;12.148;2022-11-11T08:13:41;4.03;;;3.63;;
11303;SDS011;5707;49.588;12.148;2022-11-11T08:16:12;4.43;;;4.05;;
11303;SDS011;5707;49.588;12.148;2022-11-11T08:18:38;3.42;;;3.05;;
11303;SDS011;5707;49.588;12.148;2022-11-11T08:21:06;3.30;;;2.80;;
11303;SDS011;5707;49.588;12.148;2022-11-11T08:23:33;3.22;;;2.80;;
11303;SDS011;5707;49.588;12.148;2022-11-11T08:25:59;2.78;;;2.58;;
11303;SDS011;5707;49.588;12.148;2022-11-11T08:28:26;3.20;;;3.00;;
11303;SDS011;5707;49.588;12.148;2022-11-11T08:30:52;3.20;;;3.03;;
11303;SDS011;5707;49.588;12.148;2022-11-11T08:33:19;4.38;;;3.10;;
11303;SDS011;5707;49.588;12.148;2022-11-11T08:35:45;3.53;;;3.25;;
11303;SDS011;5707;49.588;12.148;2022-11-11T08:38:10;3.90;;;3.65;;
11303;SDS011;5707;49.588;12.148;2022-11-11T08:40:37;3.28;;;3.08;;
11303;SDS011;5707;49.588;12.148;2022-11-11T08:43:03;3.40;;;3.20;;
11303;SDS011;5707;49.588;12.148;2022-11-11T08:45:28;3.30;;;3.10;;
11303;SDS011;5707;49.588;12.148;2022-11-11T08:47:54;2.83;;;2.70;;
11303;SDS011;5707;49.588;12.148;2022-11-11T08:50:20;3.30;;;2.97;;
11303;SDS011;5707;49.588;12.148;2022-11-11T08:52:49;3.70;;;3.10;;
11303;SDS011;5707;49.588;12.148;2022-11-11T08:55:15;3.28;;;3.08;;
11303;SDS011;5707;49.588;12.148;2022-11-11T08:57:42;3.28;;;3.08;;
11303;SDS011;5707;49.588;12.148;2022-11-11T09:00:08;3.40;;;3.20;;
11303;SDS011;5707;49.588;12.148;2022-11-11T09:02:35;4.10;;;3.80;;
11303;SDS011;5707;49.588;12.148;2022-11-11T09:05:01;3.72;;;3.42;;
11303;SDS011;5707;49.588;12.148;2022-11-11T09:07:28;3.42;;;3.22;;
11303;SDS011;5707;49.588;12.148;2022-11-11T09:09:53;3.80;;;3.60;;
11303;SDS011;5707;49.588;12.148;2022-11-11T09:12:19;3.70;;;3.50;;
11303;SDS011;5707;49.588;12.148;2022-11-11T09:14:45;3.45;;;3.25;;
11303;SDS011;5707;49.588;12.148;2022-11-11T09:17:10;3.92;;;3.63;;
11303;SDS011;5707;49.588;12.148;2022-11-11T09:19:36;3.53;;;3.28;;
11303;SDS011;5707;49.588;12.148;2022-11-11T09:22:02;3.45;;;3.25;;
11303;SDS011;5707;49.588;12.148;2022-11-11T09:24:27;3.55;;;3.35;;
11303;SDS011;5707;49.588;12.148;2022-11-11T09:26:53;3.60;;;3.38;;
11303;SDS011;5707;49.588;12.148;2022-11-11T09:29:18;3.25;;;3.05;;
11303;SDS011;5707;49.588;12.148;2022-11-11T09:31:44;3.55;;;3.35;;
11303;SDS011;5707;49.588;12.148;2022-11-11T09:34:11;3.83;;;3.63;;
11303;SDS011;5707;49.588;12.148;2022-11-11T09:36:36;3.47;;;3.28;;
11303;SDS011;5707;49.588;12.148;2022-11-11T09:39:02;3.25;;;3.05;;
11303;SDS011;5707;49.588;12.148;2022-11-11T09:44:18;4.25;;;3.65;;
11303;SDS011;5707;49.588;12.148;2022-11-11T09:52:17;4.10;;;3.80;;
11303;SDS011;5707;49.588;12.148;2022-11-11T09:59:58;4.25;;;3.95;;
11303;SDS011;5707;49.588;12.148;2022-11-11T10:05:21;3.90;;;3.60;;
11303;SDS011;5707;49.588;12.148;2022-11-11T10:07:53;4.57;;;4.28;;
11303;SDS011;5707;49.588;12.148;2022-11-11T10:10:38;4.28;;;3.97;;
11303;SDS011;5707;49.588;12.148;2022-11-11T10:13:13;4.57;;;4.28;;
11303;SDS011;5707;49.588;12.148;2022-11-11T10:18:26;5.60;;;5.20;;
11303;SDS011;5707;49.588;12.148;2022-11-11T10:21:35;4.55;;;4.25;;
11303;SDS011;5707;49.588;12.148;2022-11-11T10:24:14;4.22;;;3.92;;
11303;SDS011;5707;49.588;12.148;2022-11-11T10:26:46;4.50;;;4.20;;
11303;SDS011;5707;49.588;12.148;2022-11-11T10:29:19;4.63;;;4.32;;
11303;SDS011;5707;49.588;12.148;2022-11-11T10:32:19;4.70;;;4.30;;
11303;SDS011;5707;49.588;12.148;2022-11-11T10:34:37;4.45;;;4.15;;
11303;SDS011;5707;49.588;12.148;2022-11-11T10:37:08;3.88;;;3.65;;
11303;SDS011;5707;49.588;12.148;2022-11-11T10:39:49;4.15;;;3.95;;
11303;SDS011;5707;49.588;12.148;2022-11-11T10:42:36;4.43;;;4.13;;
11303;SDS011;5707;49.588;12.148;2022-11-11T10:45:02;4.00;;;3.75;;
11303;SDS011;5707;49.588;12.148;2022-11-11T10:47:43;4.95;;;4.57;;
11303;SDS011;5707;49.588;12.148;2022-11-11T10:50:30;4.47;;;4.18;;
11303;SDS011;5707;49.588;12.148;2022-11-11T10:55:58;4.60;;;4.30;;
11303;SDS011;5707;49.588;12.148;2022-11-11T10:58:40;3.90;;;3.70;;
11303;SDS011;5707;49.588;12.148;2022-11-11T11:01:11;4.25;;;3.95;;
11303;SDS011;5707;49.588;12.148;2022-11-11T11:03:42;4.25;;;3.97;;
11303;SDS011;5707;49.588;12.148;2022-11-11T11:06:15;4.10;;;3.80;;
11303;SDS011;5707;49.588;12.148;2022-11-11T11:09:00;4.07;;;3.80;;
11303;SDS011;5707;49.588;12.148;2022-11-11T11:11:35;3.85;;;3.65;;
11303;SDS011;5707;49.588;12.148;2022-11-11T11:14:07;4.60;;;4.30;;
11303;SDS011;5707;49.588;12.148;2022-11-11T11:16:41;4.40;;;4.10;;
11303;SDS011;5707;49.588;12.148;2022-11-11T11:19:27;4.30;;;4.00;;
11303;SDS011;5707;49.588;12.148;2022-11-11T11:26:56;4.90;;;4.60;;
11303;SDS011;5707;49.588;12.148;2022-11-11T11:29:24;4.85;;;4.50;;
11303;SDS011;5707;49.588;12.148;2022-11-11T11:32:15;5.30;;;5.00;;
11303;SDS011;5707;49.588;12.148;2022-11-11T11:37:15;5.40;;;5.10;;
11303;SDS011;5707;49.588;12.148;2022-11-11T11:39:42;5.90;;;5.50;;
11303;SDS011;5707;49.588;12.148;2022-11-11T11:42:08;5.63;;;5.22;;
11303;SDS011;5707;49.588;12.148;2022-11-11T11:44:55;5.03;;;4.72;;
11303;SDS011;5707;49.588;12.148;2022-11-11T11:47:37;5.50;;;5.10;;
11303;SDS011;5707;49.588;12.148;2022-11-11T11:50:34;5.28;;;4.95;;
11303;SDS011;5707;49.588;12.148;2022-11-11T11:53:14;5.18;;;4.88;;
11303;SDS011;5707;49.588;12.148;2022-11-11T11:56:06;4.90;;;4.60;;
11303;SDS011;5707;49.588;12.148;2022-11-11T12:01:23;4.93;;;4.63;;
11303;SDS011;5707;49.588;12.148;2022-11-11T12:09:33;5.57;;;5.00;;
11303;SDS011;5707;49.588;12.148;2022-11-11T12:17:25;5.13;;;4.82;;
11303;SDS011;5707;49.588;12.148;2022-11-11T12:22:53;12.50;;;11.57;;
11303;SDS011;5707;49.588;12.148;2022-11-11T12:31:16;5.15;;;4.85;;
11303;SDS011;5707;49.588;12.148;2022-11-11T12:36:28;4.95;;;4.65;;
11303;SDS011;5707;49.588;12.148;2022-11-11T12:39:04;5.65;;;5.25;;
11303;SDS011;5707;49.588;12.148;2022-11-11T13:01:30;5.13;;;4.72;;
11303;SDS011;5707;49.588;12.148;2022-11-11T13:15:47;4.90;;;4.57;;
11303;SDS011;5707;49.588;12.148;2022-11-11T13:18:14;5.13;;;4.72;;
11303;SDS011;5707;49.588;12.148;2022-11-11T13:23:09;4.75;;;4.45;;
11303;SDS011;5707;49.588;12.148;2022-11-11T13:25:36;5.75;;;5.35;;
11303;SDS011;5707;49.588;12.148;2022-11-11T13:28:06;5.53;;;5.05;;
11303;SDS011;5707;49.588;12.148;2022-11-11T13:33:48;5.15;;;4.85;;
11303;SDS011;5707;49.588;12.148;2022-11-11T13:36:19;6.97;;;6.43;;
11303;SDS011;5707;49.588;12.148;2022-11-11T13:38:49;4.47;;;4.18;;
11303;SDS011;5707;49.588;12.148;2022-11-11T13:41:31;6.22;;;5.82;;
11303;SDS011;5707;49.588;12.148;2022-11-11T13:44:00;6.20;;;5.80;;
11303;SDS011;5707;49.588;12.148;2022-11-11T13:46:38;5.38;;;5.00;;
11303;SDS011;5707;49.588;12.148;2022-11-11T13:49:08;4.72;;;4.43;;
11303;SDS011;5707;49.588;12.148;2022-11-11T13:51:46;5.53;;;5.15;;
11303;SDS011;5707;49.588;12.148;2022-11-11T13:54:24;6.07;;;5.68;;
11303;SDS011;5707;49.588;12.148;2022-11-11T13:57:41;4.75;;;4.45;;
11303;SDS011;5707;49.588;12.148;2022-11-11T13:59:59;6.00;;;5.60;;
11303;SDS011;5707;49.588;12.148;2022-11-11T14:02:28;6.82;;;6.43;;
11303;SDS011;5707;49.588;12.148;2022-11-11T14:12:44;6.28;;;5.78;;
11303;SDS011;5707;49.588;12.148;2022-11-11T14:17:59;6.82;;;6.32;;
11303;SDS011;5707;49.588;12.148;2022-11-11T14:20:36;7.43;;;6.93;;
11303;SDS011;5707;49.588;12.148;2022-11-11T14:25:42;6.22;;;5.82;;
11303;SDS011;5707;49.588;12.148;2022-11-11T14:30:57;6.93;;;6.43;;
11303;SDS011;5707;49.588;12.148;2022-11-11T14:41:47;8.13;;;7.53;;
11303;SDS011;5707;49.588;12.148;2022-11-11T14:54:42;7.90;;;7.40;;
11303;SDS011;5707;49.588;12.148;2022-11-11T14:57:29;7.70;;;7.20;;
11303;SDS011;5707;49.588;12.148;2022-11-11T14:59:59;6.30;;;5.90;;
11303;SDS011;5707;49.588;12.148;2022-11-11T15:02:32;7.40;;;6.75;;
11303;SDS011;5707;49.588;12.148;2022-11-11T15:05:00;6.47;;;6.07;;
11303;SDS011;5707;49.588;12.148;2022-11-11T15:07:30;7.85;;;7.35;;
11303;SDS011;5707;49.588;12.148;2022-11-11T15:16:13;7.68;;;7.18;;
11303;SDS011;5707;49.588;12.148;2022-11-11T15:25:21;9.13;;;8.52;;
11303;SDS011;5707;49.588;12.148;2022-11-11T15:31:00;7.72;;;7.22;;
11303;SDS011;5707;49.588;12.148;2022-11-11T15:34:06;8.18;;;7.68;;
11303;SDS011;5707;49.588;12.148;2022-11-11T15:39:47;7.65;;;7.15;;
11303;SDS011;5707;49.588;12.148;2022-11-11T15:45:04;8.25;;;7.65;;
11303;SDS011;5707;49.588;12.148;2022-11-11T15:47:44;7.95;;;7.45;;
11303;SDS011;5707;49.588;12.148;2022-11-11T15:52:53;9.52;;;8.82;;
11303;SDS011;5707;49.588;12.148;2022-11-11T15:57:49;9.20;;;8.60;;
11303;SDS011;5707;49.588;12.148;2022-11-11T16:00:28;10.13;;;9.43;;
11303;SDS011;5707;49.588;12.148;2022-11-11T16:02:55;9.63;;;9.02;;
11303;SDS011;5707;49.588;12.148;2022-11-11T16:05:23;11.32;;;10.52;;
11303;SDS011;5707;49.588;12.148;2022-11-11T16:07:50;13.63;;;12.68;;
11303;SDS011;5707;49.588;12.148;2022-11-11T16:10:26;18.98;;;17.48;;
11303;SDS011;5707;49.588;12.148;2022-11-11T16:12:55;23.30;;;21.48;;
11303;SDS011;5707;49.588;12.148;2022-11-11T16:15:27;13.93;;;12.93;;
11303;SDS011;5707;49.588;12.148;2022-11-11T16:18:11;10.75;;;9.95;;
11303;SDS011;5707;49.588;12.148;2022-11-11T16:20:50;10.23;;;9.43;;
11303;SDS011;5707;49.588;12.148;2022-11-11T16:23:38;11.35;;;10.35;;
11303;SDS011;5707;49.588;12.148;2022-11-11T16:26:05;10.75;;;10.05;;
11303;SDS011;5707;49.588;12.148;2022-11-11T16:37:00;12.38;;;11.38;;
11303;SDS011;5707;49.588;12.148;2022-11-11T16:39:28;12.10;;;11.07;;
11303;SDS011;5707;49.588;12.148;2022-11-11T16:41:58;12.27;;;11.38;;
11303;SDS011;5707;49.588;12.148;2022-11-11T16:46:53;13.93;;;12.82;;
11303;SDS011;5707;49.588;12.148;2022-11-11T16:51:47;14.80;;;13.70;;
11303;SDS011;5707;49.588;12.148;2022-11-11T16:56:43;13.52;;;12.63;;
11303;SDS011;5707;49.588;12.148;2022-11-11T16:59:18;13.82;;;12.63;;
11303;SDS011;5707;49.588;12.148;2022-11-11T17:01:49;12.93;;;11.73;;
11303;SDS011;5707;49.588;12.148;2022-11-11T17:04:15;13.07;;;12.18;;
11303;SDS011;5707;49.588;12.148;2022-11-11T17:06:45;12.15;;;11.35;;
11303;SDS011;5707;49.588;12.148;2022-11-11T17:12:03;9.60;;;8.95;;
11303;SDS011;5707;49.588;12.148;2022-11-11T17:14:31;9.23;;;8.52;;
11303;SDS011;5707;49.588;12.148;2022-11-11T17:16:59;11.52;;;10.73;;
11303;SDS011;5707;49.588;12.148;2022-11-11T17:19:26;10.93;;;10.15;;
11303;SDS011;5707;49.588;12.148;2022-11-11T17:21:52;8.93;;;8.43;;
11303;SDS011;5707;49.588;12.148;2022-11-11T17:24:17;9.10;;;8.50;;
11303;SDS011;5707;49.588;12.148;2022-11-11T17:26:43;11.23;;;10.45;;
11303;SDS011;5707;49.588;12.148;2022-11-11T17:29:08;13.75;;;12.75;;
11303;SDS011;5707;49.588;12.148;2022-11-11T17:31:34;11.30;;;10.50;;
11303;SDS011;5707;49.588;12.148;2022-11-11T17:34:08;12.23;;;11.18;;
11303;SDS011;5707;49.588;12.148;2022-11-11T17:36:34;23.55;;;20.67;;
11303;SDS011;5707;49.588;12.148;2022-11-11T17:39:00;19.23;;;17.25;;
11303;SDS011;5707;49.588;12.148;2022-11-11T17:41:26;13.90;;;12.88;;
11303;SDS011;5707;49.588;12.148;2022-11-11T17:43:52;13.70;;;12.65;;
11303;SDS011;5707;49.588;12.148;2022-11-11T17:46:17;12.85;;;11.75;;
11303;SDS011;5707;49.588;12.148;2022-11-11T17:48:43;12.25;;;11.35;;
11303;SDS011;5707;49.588;12.148;2022-11-11T17:51:08;12.93;;;11.93;;
11303;SDS011;5707;49.588;12.148;2022-11-11T17:53:34;10.98;;;10.18;;
11303;SDS011;5707;49.588;12.148;2022-11-11T17:56:01;11.10;;;10.32;;
11303;SDS011;5707;49.588;12.148;2022-11-11T17:58:28;10.80;;;9.90;;
11303;SDS011;5707;49.588;12.148;2022-11-11T18:00:54;11.05;;;9.98;;